Time;durP1;ratioP1;P1;durP2;ratioP2;P2;SDS_P1;SDS_P2;PMS_P1;PMS_P2;Temp;Humidity;BMP_temperature;BMP_pressure;BME280_temperature;BME280_humidity;BME280_pressure;Samples;Min_cycle;Max_cycle;Signal;HPM_P1;HPM_P2
2022/04/15 00:01:26;;;;;;;6.57;3.22;;;9.60;99.90;;;;;;6189037;23;20062;-90
2022/04/15 00:03:52;;;;;;;3.65;2.75;;;9.60;99.90;;;;;;6187591;23;20657;-91
2022/04/15 00:06:19;;;;;;;6.90;3.00;;;9.60;99.90;;;;;;6188935;23;20015;-90
2022/04/15 00:08:45;;;;;;;3.25;2.70;;;9.50;99.90;;;;;;6188503;23;20021;-91
2022/04/15 00:11:12;;;;;;;4.70;2.55;;;9.50;99.90;;;;;;6188543;23;20000;-90
2022/04/15 00:13:37;;;;;;;5.57;3.10;;;9.50;99.90;;;;;;6188288;23;20009;-91
2022/04/15 00:16:05;;;;;;;6.47;3.17;;;9.50;99.90;;;;;;6188471;23;20328;-91
2022/04/15 00:18:32;;;;;;;4.13;2.80;;;9.60;99.90;;;;;;6188423;23;20009;-90
2022/04/15 00:21:00;;;;;;;4.88;2.95;;;9.60;99.90;;;;;;6189379;23;20036;-92
2022/04/15 00:23:26;;;;;;;6.18;3.20;;;9.60;99.90;;;;;;6193305;23;20068;-90
2022/04/15 00:25:52;;;;;;;5.75;3.10;;;9.60;99.90;;;;;;6214065;23;20020;-91
2022/04/15 00:28:19;;;;;;;5.65;2.88;;;9.60;99.90;;;;;;6245374;23;20327;-90
2022/04/15 00:30:45;;;;;;;5.00;3.08;;;9.60;99.90;;;;;;6227051;23;20027;-90
2022/04/15 00:33:11;;;;;;;4.28;2.92;;;9.70;99.90;;;;;;6227384;23;20012;-90
2022/04/15 00:35:37;;;;;;;4.97;2.97;;;9.70;99.90;;;;;;6217987;23;20316;-91
2022/04/15 00:38:04;;;;;;;4.75;2.67;;;9.70;99.90;;;;;;6218242;23;20070;-90
2022/04/15 00:40:29;;;;;;;5.22;2.63;;;9.70;99.90;;;;;;6217486;23;20094;-90
2022/04/15 00:42:55;;;;;;;5.22;3.05;;;9.70;99.90;;;;;;6217483;23;20004;-90
2022/04/15 00:45:21;;;;;;;6.65;2.67;;;9.70;99.90;;;;;;6217401;23;20481;-90
2022/04/15 00:47:51;;;;;;;4.30;2.83;;;9.70;99.90;;;;;;6217541;23;20501;-90
2022/04/15 00:50:28;;;;;;;5.85;3.20;;;9.70;99.90;;;;;;6217926;23;20107;-90
2022/04/15 00:53:01;;;;;;;4.22;2.70;;;9.70;99.90;;;;;;6217546;23;20035;-91
2022/04/15 00:55:27;;;;;;;4.13;2.90;;;9.70;99.90;;;;;;6217377;23;20012;-90
2022/04/15 00:58:01;;;;;;;5.80;3.05;;;9.70;99.90;;;;;;6218145;23;20000;-92
2022/04/15 01:00:29;;;;;;;6.55;2.90;;;9.70;99.90;;;;;;6217284;23;20012;-91
2022/04/15 01:03:00;;;;;;;2.70;2.25;;;9.60;99.90;;;;;;6217522;23;20012;-91
2022/04/15 01:05:27;;;;;;;5.25;2.80;;;9.70;99.90;;;;;;6217405;23;20019;-91
2022/04/15 01:07:56;;;;;;;4.70;2.83;;;9.70;99.90;;;;;;6217635;23;20087;-91
2022/04/15 01:10:23;;;;;;;6.65;2.60;;;9.70;99.90;;;;;;6217108;23;20226;-92
2022/04/15 01:12:58;;;;;;;4.95;2.90;;;9.70;99.90;;;;;;6217677;23;20008;-91
2022/04/15 01:15:28;;;;;;;3.45;2.65;;;9.60;99.90;;;;;;6217981;23;20007;-91
2022/04/15 01:17:54;;;;;;;5.20;2.33;;;9.60;99.90;;;;;;6218490;23;20446;-91
2022/04/15 01:20:20;;;;;;;3.42;2.67;;;9.50;99.90;;;;;;6218786;23;20004;-91
2022/04/15 01:22:50;;;;;;;3.50;2.50;;;9.50;99.90;;;;;;6228377;23;20008;-92
2022/04/15 01:25:17;;;;;;;4.50;2.72;;;9.50;99.90;;;;;;6220007;23;20357;-91
2022/04/15 01:27:49;;;;;;;3.08;2.17;;;9.50;99.90;;;;;;6220532;23;20005;-91
2022/04/15 01:30:18;;;;;;;4.97;3.08;;;9.50;99.90;;;;;;6219540;23;20023;-91
2022/04/15 01:32:44;;;;;;;5.32;2.78;;;9.40;99.90;;;;;;6219273;23;20022;-92
2022/04/15 01:35:12;;;;;;;4.70;2.45;;;9.40;99.90;;;;;;6246135;23;20027;-91
2022/04/15 01:37:39;;;;;;;4.03;2.38;;;9.40;99.90;;;;;;6218810;23;20359;-91
2022/04/15 01:40:07;;;;;;;4.60;2.75;;;9.40;99.90;;;;;;6218880;23;20035;-89
2022/04/15 01:42:35;;;;;;;7.10;2.60;;;9.40;99.90;;;;;;6219369;23;20004;-91
2022/04/15 01:45:01;;;;;;;3.88;2.47;;;9.40;99.90;;;;;;6218811;23;20004;-91
2022/04/15 01:47:27;;;;;;;5.80;2.72;;;9.40;99.90;;;;;;6218873;23;20028;-90
2022/04/15 01:49:53;;;;;;;4.15;2.63;;;9.40;99.90;;;;;;6219633;23;20015;-91
2022/04/15 01:52:19;;;;;;;5.20;2.47;;;9.40;99.90;;;;;;6220017;23;20321;-91
2022/04/15 01:54:46;;;;;;;3.35;2.65;;;9.30;99.90;;;;;;6219294;23;20015;-90
2022/04/15 01:57:11;;;;;;;6.43;3.10;;;9.40;99.90;;;;;;6218866;23;20062;-90
2022/04/15 01:59:38;;;;;;;4.35;2.92;;;9.30;99.90;;;;;;6219109;23;20016;-89
2022/04/15 02:02:05;;;;;;;4.38;2.75;;;9.30;99.90;;;;;;6219676;23;20004;-91
2022/04/15 02:04:31;;;;;;;4.30;3.03;;;9.30;99.90;;;;;;6219914;23;20030;-90
2022/04/15 02:06:57;;;;;;;5.60;2.88;;;9.30;99.90;;;;;;6223902;23;20306;-90
2022/04/15 02:09:23;;;;;;;6.55;3.10;;;9.20;99.90;;;;;;6220926;23;20023;-91
2022/04/15 02:11:49;;;;;;;6.75;3.28;;;9.20;99.90;;;;;;6219282;23;20008;-90
2022/04/15 02:14:18;;;;;;;5.75;3.03;;;9.20;99.90;;;;;;6219224;23;20027;-90
2022/04/15 02:16:45;;;;;;;5.82;2.72;;;9.20;99.90;;;;;;6218687;23;20005;-89
2022/04/15 02:19:10;;;;;;;4.03;2.40;;;9.20;99.90;;;;;;6218645;23;20004;-90
2022/04/15 02:21:36;;;;;;;6.55;2.80;;;9.20;99.90;;;;;;6219023;23;20044;-90
2022/04/15 02:24:02;;;;;;;4.93;3.05;;;9.10;99.90;;;;;;6218803;23;20008;-91
2022/04/15 02:26:28;;;;;;;4.88;2.90;;;9.10;99.90;;;;;;6219217;23;20011;-89
2022/04/15 02:28:53;;;;;;;4.53;3.00;;;9.00;99.90;;;;;;6218981;23;20439;-90
2022/04/15 02:31:19;;;;;;;4.68;2.60;;;9.00;99.90;;;;;;6219130;23;20062;-89
2022/04/15 02:33:45;;;;;;;4.78;3.05;;;8.90;99.90;;;;;;6219675;23;20035;-91
2022/04/15 02:36:11;;;;;;;5.32;2.97;;;8.90;99.90;;;;;;6219264;23;20008;-90
2022/04/15 02:38:36;;;;;;;5.20;3.42;;;8.90;99.90;;;;;;6219254;23;20011;-89
2022/04/15 02:41:04;;;;;;;6.32;2.88;;;8.90;99.90;;;;;;6219242;23;20459;-90
2022/04/15 02:43:33;;;;;;;5.25;3.47;;;8.80;99.90;;;;;;6219132;23;20884;-89
2022/04/15 02:46:01;;;;;;;6.68;3.65;;;8.80;99.90;;;;;;6218769;23;20024;-90
2022/04/15 02:48:27;;;;;;;7.90;3.70;;;8.80;99.90;;;;;;6218846;23;20012;-90
2022/04/15 02:50:53;;;;;;;3.42;2.65;;;8.70;99.90;;;;;;6221268;23;20012;-89
2022/04/15 02:53:19;;;;;;;6.57;3.55;;;8.70;99.90;;;;;;6222886;23;20485;-89
2022/04/15 02:55:45;;;;;;;5.25;3.40;;;8.60;99.90;;;;;;6222545;23;20047;-89
2022/04/15 02:58:11;;;;;;;7.00;3.67;;;8.60;99.90;;;;;;6222461;23;20004;-90
2022/04/15 03:00:37;;;;;;;7.55;3.55;;;8.60;99.90;;;;;;6222510;23;20008;-89
2022/04/15 03:03:02;;;;;;;7.05;3.47;;;8.60;99.90;;;;;;6218999;23;20018;-90
2022/04/15 03:05:29;;;;;;;5.40;3.47;;;8.70;99.90;;;;;;6218300;23;20005;-89
2022/04/15 03:07:55;;;;;;;6.47;3.30;;;8.70;99.90;;;;;;6218331;23;20339;-90
2022/04/15 03:10:21;;;;;;;6.88;2.92;;;8.60;99.90;;;;;;6217681;23;20012;-90
2022/04/15 03:12:47;;;;;;;5.05;3.20;;;8.60;99.90;;;;;;6217852;23;20015;-89
2022/04/15 03:15:12;;;;;;;7.53;3.30;;;8.60;99.90;;;;;;6217743;23;20008;-89
2022/04/15 03:17:38;;;;;;;6.75;3.55;;;8.60;99.90;;;;;;6217946;23;20054;-89
2022/04/15 03:20:05;;;;;;;3.97;2.88;;;8.60;99.90;;;;;;6218180;23;20008;-90
2022/04/15 03:22:38;;;;;;;6.60;3.50;;;8.60;99.90;;;;;;6218286;23;20073;-90
2022/04/15 03:25:17;;;;;;;6.93;3.20;;;8.60;99.90;;;;;;6226486;23;20016;-89
2022/04/15 03:27:43;;;;;;;11.57;3.38;;;8.50;99.90;;;;;;6229145;23;20012;-90
2022/04/15 03:30:11;;;;;;;5.63;3.33;;;8.50;99.90;;;;;;6224513;23;20019;-91
2022/04/15 03:32:45;;;;;;;6.95;3.30;;;8.60;99.90;;;;;;6219314;23;20440;-91
2022/04/15 03:35:10;;;;;;;4.15;2.95;;;8.50;99.90;;;;;;6218357;23;20004;-88
2022/04/15 03:37:36;;;;;;;6.70;3.38;;;8.40;99.90;;;;;;6218452;23;20015;-89
2022/04/15 03:40:02;;;;;;;7.75;3.60;;;8.40;99.90;;;;;;6218356;23;20000;-88
2022/04/15 03:42:28;;;;;;;7.40;3.40;;;8.40;99.90;;;;;;6218370;23;20018;-91
2022/04/15 03:44:53;;;;;;;5.10;2.70;;;8.30;99.90;;;;;;6218325;23;20008;-90
2022/04/15 03:47:19;;;;;;;5.07;3.28;;;8.30;99.90;;;;;;6218326;23;20031;-89
2022/04/15 03:49:47;;;;;;;5.03;2.92;;;8.30;99.90;;;;;;6217803;23;20012;-91
2022/04/15 03:52:13;;;;;;;6.88;2.95;;;8.30;99.90;;;;;;6220096;23;19996;-90
2022/04/15 03:54:38;;;;;;;7.03;2.95;;;8.20;99.90;;;;;;6218952;23;20008;-90
2022/04/15 03:57:04;;;;;;;10.27;3.50;;;8.20;99.90;;;;;;6218312;23;20346;-90
2022/04/15 03:59:29;;;;;;;4.90;2.88;;;8.10;99.90;;;;;;6217894;23;20440;-90
2022/04/15 04:01:55;;;;;;;5.57;3.42;;;8.10;99.90;;;;;;6218315;23;20529;-88
2022/04/15 04:04:21;;;;;;;6.50;3.20;;;8.10;99.90;;;;;;6217833;23;20316;-89
2022/04/15 04:06:46;;;;;;;9.27;3.83;;;8.10;99.90;;;;;;6218054;23;20011;-89
2022/04/15 04:09:12;;;;;;;3.38;2.67;;;8.10;99.90;;;;;;6218047;23;20123;-89
2022/04/15 04:11:38;;;;;;;6.07;3.15;;;8.10;99.90;;;;;;6217926;23;20094;-91
2022/04/15 04:14:03;;;;;;;5.28;3.20;;;8.10;99.90;;;;;;6217902;23;20047;-89
2022/04/15 04:16:29;;;;;;;4.70;3.05;;;8.10;99.90;;;;;;6218210;23;20500;-90
2022/04/15 04:18:55;;;;;;;5.20;3.67;;;8.00;99.90;;;;;;6218701;23;20018;-89
2022/04/15 04:21:21;;;;;;;6.63;3.90;;;8.00;99.90;;;;;;6231884;23;20083;-90
2022/04/15 04:23:48;;;;;;;6.55;3.55;;;7.90;99.90;;;;;;6232682;23;20000;-90
2022/04/15 04:26:14;;;;;;;5.50;3.47;;;7.90;99.90;;;;;;6221378;23;20043;-90
2022/04/15 04:28:40;;;;;;;6.07;3.70;;;7.80;99.90;;;;;;6219617;23;20004;-90
2022/04/15 04:31:05;;;;;;;7.43;4.20;;;7.80;99.90;;;;;;6218120;23;20040;-89
2022/04/15 04:33:31;;;;;;;6.82;3.72;;;7.80;99.90;;;;;;6218177;23;20004;-90
2022/04/15 04:35:56;;;;;;;7.10;3.70;;;7.80;99.90;;;;;;6218506;23;20442;-88
2022/04/15 04:38:22;;;;;;;7.60;3.95;;;7.70;99.90;;;;;;6218194;23;20000;-90
2022/04/15 04:40:48;;;;;;;6.82;4.07;;;7.60;99.90;;;;;;6218574;23;20308;-90
2022/04/15 04:43:14;;;;;;;5.38;3.50;;;7.60;99.90;;;;;;6218937;23;20010;-89
2022/04/15 04:45:40;;;;;;;6.35;3.72;;;7.50;99.90;;;;;;6218106;23;20028;-90
2022/04/15 04:48:06;;;;;;;7.72;3.70;;;7.50;99.90;;;;;;6218148;23;20486;-88
2022/04/15 04:50:32;;;;;;;7.50;3.80;;;7.40;99.90;;;;;;6217925;23;20023;-89
2022/04/15 04:52:58;;;;;;;6.85;4.00;;;7.40;99.90;;;;;;6217923;23;20008;-89
2022/04/15 04:55:24;;;;;;;7.43;4.22;;;7.40;99.90;;;;;;6217897;23;20000;-91
2022/04/15 04:57:50;;;;;;;7.07;3.58;;;7.40;99.90;;;;;;6218037;23;20004;-90
2022/04/15 05:00:17;;;;;;;6.70;3.65;;;7.40;99.90;;;;;;6218554;23;20462;-90
2022/04/15 05:02:44;;;;;;;6.55;3.90;;;7.30;99.90;;;;;;6219270;23;20004;-90
2022/04/15 05:05:11;;;;;;;5.65;3.50;;;7.30;99.90;;;;;;6219617;23;20012;-91
2022/04/15 05:07:37;;;;;;;6.82;4.03;;;7.20;99.90;;;;;;6219407;23;20016;-90
2022/04/15 05:10:06;;;;;;;8.45;4.13;;;7.20;99.90;;;;;;6218988;23;20039;-91
2022/04/15 05:12:32;;;;;;;5.53;3.83;;;7.20;99.90;;;;;;6219104;23;20007;-89
2022/04/15 05:14:58;;;;;;;7.10;3.50;;;7.20;99.90;;;;;;6219641;23;20005;-89
2022/04/15 05:17:23;;;;;;;8.15;4.30;;;7.20;99.90;;;;;;6219863;23;20031;-89
2022/04/15 05:19:49;;;;;;;8.18;4.25;;;7.10;99.90;;;;;;6219363;23;20076;-88
2022/04/15 05:22:15;;;;;;;6.18;3.80;;;7.10;99.90;;;;;;6219561;23;20012;-90
2022/04/15 05:24:41;;;;;;;5.40;3.33;;;7.10;99.90;;;;;;6219618;23;20051;-89
2022/04/15 05:27:07;;;;;;;5.50;3.45;;;7.00;99.90;;;;;;6220742;23;20016;-91
2022/04/15 05:29:33;;;;;;;5.97;3.58;;;7.00;99.90;;;;;;6220313;23;20016;-89
2022/04/15 05:31:59;;;;;;;7.50;4.00;;;7.00;99.90;;;;;;6220289;23;20007;-89
2022/04/15 05:34:25;;;;;;;8.68;4.15;;;7.00;99.90;;;;;;6219275;23;20011;-90
2022/04/15 05:36:51;;;;;;;9.07;4.78;;;7.00;99.90;;;;;;6224923;23;20004;-90
2022/04/15 05:39:17;;;;;;;8.55;4.60;;;7.00;99.90;;;;;;6228502;23;20451;-90
2022/04/15 05:41:42;;;;;;;6.47;4.13;;;7.00;99.90;;;;;;6230255;23;20018;-89
2022/04/15 05:44:08;;;;;;;7.60;4.43;;;7.00;99.90;;;;;;6223678;23;20050;-90
2022/04/15 05:46:37;;;;;;;7.00;3.92;;;7.00;99.90;;;;;;6220950;23;20075;-90
2022/04/15 05:49:05;;;;;;;11.13;5.00;;;7.00;99.90;;;;;;6248690;23;20050;-91
2022/04/15 05:51:30;;;;;;;9.15;4.10;;;7.00;99.90;;;;;;6228584;23;19996;-89
2022/04/15 05:53:56;;;;;;;8.38;4.03;;;7.00;99.90;;;;;;6236167;23;20062;-91
2022/04/15 05:56:22;;;;;;;8.50;4.55;;;7.00;99.90;;;;;;6224778;23;20027;-90
2022/04/15 05:58:47;;;;;;;5.88;3.90;;;6.90;99.90;;;;;;6222292;23;20012;-89
2022/04/15 06:01:13;;;;;;;7.07;4.32;;;6.90;99.90;;;;;;6220330;23;20106;-90
2022/04/15 06:03:39;;;;;;;7.03;4.57;;;6.90;99.90;;;;;;6219537;23;20461;-90
2022/04/15 06:06:05;;;;;;;9.63;4.70;;;6.90;99.90;;;;;;6220131;23;19996;-90
2022/04/15 06:08:31;;;;;;;7.97;4.57;;;6.90;99.90;;;;;;6220029;23;20016;-90
2022/04/15 06:10:58;;;;;;;10.13;4.90;;;6.90;99.90;;;;;;6219696;23;20517;-89
2022/04/15 06:13:25;;;;;;;7.07;4.35;;;6.90;99.90;;;;;;6220239;23;20438;-91
2022/04/15 06:15:56;;;;;;;11.10;4.82;;;6.90;99.90;;;;;;6222251;23;20507;-91
2022/04/15 06:18:28;;;;;;;6.57;4.53;;;6.90;99.90;;;;;;6250100;23;20167;-90
2022/04/15 06:20:54;;;;;;;7.20;4.60;;;6.90;99.90;;;;;;6219335;23;20000;-90
2022/04/15 06:23:20;;;;;;;8.25;4.35;;;6.90;99.90;;;;;;6219201;23;20077;-90
2022/04/15 06:25:46;;;;;;;8.00;4.15;;;6.90;99.90;;;;;;6218537;23;20012;-90
2022/04/15 06:28:12;;;;;;;6.53;4.30;;;6.90;99.90;;;;;;6219046;23;20015;-92
2022/04/15 06:30:38;;;;;;;8.35;4.32;;;6.90;99.90;;;;;;6219272;23;20019;-91
2022/04/15 06:33:06;;;;;;;9.68;5.05;;;6.90;99.90;;;;;;6245873;23;20000;-91
2022/04/15 06:35:33;;;;;;;8.07;5.03;;;6.90;99.90;;;;;;6245863;23;20011;-91
2022/04/15 06:37:59;;;;;;;5.90;3.55;;;7.00;99.90;;;;;;6219886;23;20004;-93
2022/04/15 06:40:27;;;;;;;17.60;4.50;;;7.10;99.90;;;;;;6220112;23;20442;-92
2022/04/15 06:42:53;;;;;;;33.10;5.68;;;7.20;99.90;;;;;;6220268;23;20344;-93
2022/04/15 06:45:18;;;;;;;29.20;4.90;;;7.30;99.90;;;;;;6225061;23;20038;-91
2022/04/15 06:47:44;;;;;;;8.90;4.75;;;7.40;99.90;;;;;;6218978;23;20008;-91
2022/04/15 06:50:10;;;;;;;13.27;4.68;;;7.60;99.90;;;;;;6218927;23;20122;-91
2022/04/15 06:52:36;;;;;;;9.07;4.60;;;7.70;99.90;;;;;;6218462;23;20039;-90
2022/04/15 06:55:03;;;;;;;7.30;4.28;;;7.80;99.90;;;;;;6218696;23;20004;-91
2022/04/15 06:57:31;;;;;;;8.63;4.82;;;8.00;99.90;;;;;;6219000;23;20018;-92
2022/04/15 06:59:57;;;;;;;7.82;4.70;;;8.10;99.90;;;;;;6219412;23;20008;-91
2022/04/15 07:02:23;;;;;;;8.70;5.10;;;8.20;99.90;;;;;;6219160;23;20015;-91
2022/04/15 07:04:48;;;;;;;8.82;4.93;;;8.40;99.90;;;;;;6219758;23;20060;-93
2022/04/15 07:07:14;;;;;;;8.15;5.32;;;8.50;99.90;;;;;;6221872;23;20019;-92
2022/04/15 07:09:39;;;;;;;7.75;5.10;;;8.60;99.90;;;;;;6220925;23;20459;-92
2022/04/15 07:12:06;;;;;;;8.23;5.20;;;8.80;99.90;;;;;;6220662;23;20379;-91
2022/04/15 07:14:33;;;;;;;9.25;5.05;;;8.90;99.90;;;;;;6222098;23;20016;-92
2022/04/15 07:16:59;;;;;;;10.95;5.68;;;9.10;99.90;;;;;;6230673;23;20027;-91
2022/04/15 07:19:25;;;;;;;11.30;5.45;;;9.20;99.90;;;;;;6237182;23;20091;-91
2022/04/15 07:21:51;;;;;;;13.50;6.50;;;9.30;99.90;;;;;;6231487;23;20019;-90
2022/04/15 07:24:16;;;;;;;10.05;5.40;;;9.40;99.90;;;;;;6228216;23;20501;-91
2022/04/15 07:26:42;;;;;;;11.50;5.95;;;9.50;99.90;;;;;;6254758;23;20008;-91
2022/04/15 07:29:08;;;;;;;8.93;5.13;;;9.70;99.90;;;;;;6223672;23;20419;-88
2022/04/15 07:31:34;;;;;;;10.07;5.93;;;9.80;99.90;;;;;;6222183;23;20053;-93
2022/04/15 07:34:01;;;;;;;12.70;6.15;;;9.90;99.90;;;;;;6221376;23;20011;-90
2022/04/15 07:39:03;;;;;;;12.52;6.90;;;10.00;99.90;;;;;;6258013;23;20004;-91
2022/04/15 07:41:29;;;;;;;14.68;6.13;;;10.00;99.90;;;;;;6220390;23;20008;-91
2022/04/15 07:43:55;;;;;;;13.35;6.50;;;10.00;99.90;;;;;;6220670;23;20331;-92
2022/04/15 07:46:20;;;;;;;11.25;5.75;;;10.00;99.90;;;;;;6220628;23;20046;-91
2022/04/15 07:48:46;;;;;;;13.77;6.38;;;10.00;99.90;;;;;;6220485;23;20023;-91
2022/04/15 07:51:14;;;;;;;10.55;6.32;;;10.00;99.90;;;;;;6220116;23;20018;-93
2022/04/15 07:53:40;;;;;;;13.50;6.13;;;10.00;99.90;;;;;;6220201;23;20002;-92
2022/04/15 07:56:05;;;;;;;15.88;7.25;;;10.10;99.90;;;;;;6220041;23;20063;-92
2022/04/15 07:58:34;;;;;;;12.80;6.20;;;10.10;99.90;;;;;;6219828;23;20011;-91
2022/04/15 08:01:00;;;;;;;13.07;6.22;;;10.20;99.90;;;;;;6219884;23;20007;-93
2022/04/15 08:03:26;;;;;;;14.18;6.45;;;10.20;99.90;;;;;;6219512;23;20019;-92
2022/04/15 08:05:53;;;;;;;12.60;7.00;;;10.20;99.90;;;;;;6217701;23;20014;-92
2022/04/15 08:08:18;;;;;;;15.85;6.90;;;10.30;99.90;;;;;;6219199;23;20043;-92
2022/04/15 08:10:45;;;;;;;15.85;7.57;;;10.30;99.90;;;;;;6219054;23;20016;-92
2022/04/15 08:13:10;;;;;;;12.40;6.90;;;10.40;99.90;;;;;;6220283;23;20011;-91
2022/04/15 08:15:36;;;;;;;16.98;7.43;;;10.40;99.90;;;;;;6229290;23;20067;-91
2022/04/15 08:18:02;;;;;;;16.05;7.93;;;10.50;99.90;;;;;;6220365;23;20442;-91
2022/04/15 08:20:27;;;;;;;16.48;7.53;;;10.60;99.90;;;;;;6226417;23;20140;-92
2022/04/15 08:22:53;;;;;;;14.35;8.00;;;10.60;99.90;;;;;;6224731;23;20008;-92
2022/04/15 08:25:19;;;;;;;12.20;6.65;;;10.70;99.90;;;;;;6219778;23;20102;-92
2022/04/15 08:27:45;;;;;;;16.17;8.05;;;10.80;99.90;;;;;;6220191;23;20008;-91
2022/04/15 08:30:10;;;;;;;12.02;7.05;;;10.90;99.90;;;;;;6220121;23;20018;-92
2022/04/15 08:32:36;;;;;;;13.23;6.80;;;11.00;99.90;;;;;;6220314;23;20070;-92
2022/04/15 08:35:03;;;;;;;13.73;6.70;;;11.20;99.90;;;;;;6220400;23;20004;-91
2022/04/15 08:37:29;;;;;;;14.20;7.78;;;11.30;99.90;;;;;;6221608;23;20000;-93
2022/04/15 08:39:55;;;;;;;13.00;7.72;;;11.50;99.90;;;;;;6221940;23;20105;-92
2022/04/15 08:42:21;;;;;;;13.90;8.00;;;11.60;99.90;;;;;;6221113;23;20004;-92
2022/04/15 08:44:50;;;;;;;10.30;5.60;;;11.80;99.90;;;;;;6220641;23;20054;-92
2022/04/15 08:47:16;;;;;;;12.93;7.25;;;11.90;99.90;;;;;;6221825;23;20466;-92
2022/04/15 08:49:41;;;;;;;16.38;8.15;;;12.00;99.90;;;;;;6228928;23;20222;-92
2022/04/15 08:52:09;;;;;;;19.42;8.95;;;12.20;99.90;;;;;;6237943;23;20110;-91
2022/04/15 08:54:36;;;;;;;18.95;8.65;;;12.40;99.90;;;;;;6224541;23;20014;-92
2022/04/15 08:57:02;;;;;;;16.27;8.70;;;12.60;99.90;;;;;;6221251;23;20027;-91
2022/04/15 08:59:27;;;;;;;18.00;9.00;;;12.70;99.90;;;;;;6221061;23;20085;-89
2022/04/15 09:01:53;;;;;;;22.25;10.70;;;12.90;99.90;;;;;;6221157;23;20000;-91
2022/04/15 09:04:19;;;;;;;19.10;8.77;;;13.10;99.90;;;;;;6220826;23;20040;-91
2022/04/15 09:06:45;;;;;;;18.23;9.95;;;13.20;99.90;;;;;;6221494;23;20091;-91
2022/04/15 09:09:14;;;;;;;14.25;7.95;;;13.40;99.90;;;;;;6228482;23;20004;-90
2022/04/15 09:11:41;;;;;;;16.50;9.00;;;13.50;99.90;;;;;;6222915;23;20012;-89
2022/04/15 09:14:14;;;;;;;15.02;8.40;;;13.70;99.90;;;;;;6220270;23;20008;-90
2022/04/15 09:16:41;;;;;;;16.35;9.07;;;13.90;99.90;;;;;;6220169;23;20556;-91
2022/04/15 09:19:09;;;;;;;14.38;8.40;;;14.10;99.90;;;;;;6220143;23;20008;-92
2022/04/15 09:21:35;;;;;;;15.65;8.18;;;14.30;99.90;;;;;;6220452;23;20001;-91
2022/04/15 09:24:01;;;;;;;12.50;7.30;;;14.60;99.90;;;;;;6220381;23;20015;-90
2022/04/15 09:26:27;;;;;;;13.27;7.10;;;14.90;99.90;;;;;;6219387;23;20478;-90
2022/04/15 09:28:53;;;;;;;12.73;6.50;;;15.10;99.90;;;;;;6219623;23;20016;-89
2022/04/15 09:31:21;;;;;;;10.30;6.30;;;15.20;99.90;;;;;;6247202;23;20060;-90
2022/04/15 09:33:58;;;;;;;9.80;5.97;;;15.30;99.90;;;;;;6220830;23;20028;-90
2022/04/15 09:36:33;;;;;;;12.10;6.20;;;15.30;99.90;;;;;;6220484;23;20451;-89
2022/04/15 09:39:11;;;;;;;9.18;5.30;;;15.40;99.90;;;;;;6221170;23;20008;-90
2022/04/15 09:41:42;;;;;;;11.27;6.22;;;15.50;99.90;;;;;;6220754;23;20016;-89
2022/04/15 09:44:12;;;;;;;13.15;5.07;;;15.60;99.90;;;;;;6222126;23;20095;-89
2022/04/15 09:46:41;;;;;;;;;;;15.70;99.90;;;;;;6221166;23;20012;-89
2022/04/15 09:49:09;;;;;;;11.57;4.97;;;15.80;99.90;;;;;;6221221;23;19990;-90
2022/04/15 09:51:37;;;;;;;11.18;4.78;;;15.90;99.90;;;;;;6221403;23;20054;-90
2022/04/15 09:54:04;;;;;;;14.50;5.65;;;16.00;99.90;;;;;;6221173;23;20105;-89
2022/04/15 09:56:33;;;;;;;9.73;5.22;;;16.30;99.90;;;;;;6221238;23;20086;-89
2022/04/15 09:59:08;;;;;;;8.63;3.85;;;16.40;99.90;;;;;;6221178;23;20431;-90
2022/04/15 10:01:36;;;;;;;5.95;2.72;;;16.60;99.90;;;;;;6221207;23;20007;-90
2022/04/15 10:04:04;;;;;;;9.43;3.53;;;16.70;99.90;;;;;;6221769;23;20012;-91
2022/04/15 10:06:31;;;;;;;10.07;3.67;;;16.90;99.90;;;;;;6221499;23;20466;-90
2022/04/15 10:08:59;;;;;;;5.68;2.22;;;17.00;99.90;;;;;;6220656;23;20046;-90
2022/04/15 10:11:25;;;;;;;4.68;1.90;;;17.00;99.90;;;;;;6220797;23;20012;-92
2022/04/15 10:13:51;;;;;;;4.40;2.00;;;17.00;99.60;;;;;;6220847;23;20035;-90
2022/04/15 10:16:17;;;;;;;5.55;2.45;;;17.10;98.70;;;;;;6220872;23;20039;-90
2022/04/15 10:18:45;;;;;;;4.55;2.33;;;17.20;96.50;;;;;;6222335;23;20423;-90
2022/04/15 10:21:11;;;;;;;3.20;1.83;;;17.10;95.10;;;;;;6227331;23;20015;-91
2022/04/15 10:23:37;;;;;;;7.32;2.10;;;17.30;94.40;;;;;;6221418;23;20018;-91
2022/04/15 10:26:03;;;;;;;4.13;1.95;;;17.40;93.70;;;;;;6217327;23;20042;-90
2022/04/15 10:28:45;;;;;;;6.60;1.90;;;17.50;92.80;;;;;;6192378;23;20309;-91
2022/04/15 10:31:14;;;;;;;4.28;1.60;;;17.70;92.20;;;;;;6190679;23;20023;-91
2022/04/15 10:33:40;;;;;;;4.85;2.03;;;17.70;91.30;;;;;;6189722;23;20012;-91
2022/04/15 10:36:25;;;;;;;4.25;1.55;;;17.60;90.70;;;;;;6190223;23;20004;-91
2022/04/15 10:39:03;;;;;;;4.30;1.60;;;17.70;90.60;;;;;;6189642;23;20062;-91
2022/04/15 10:41:29;;;;;;;4.57;1.55;;;17.70;90.30;;;;;;6192330;23;20000;-91
2022/04/15 10:43:59;;;;;;;4.35;1.58;;;17.70;90.30;;;;;;6190926;23;20004;-90
2022/04/15 10:46:35;;;;;;;6.20;1.60;;;17.70;89.20;;;;;;6191225;23;20039;-91
2022/04/15 10:49:02;;;;;;;3.58;1.40;;;17.70;89.20;;;;;;6168357;23;20019;-90
2022/04/15 10:51:34;;;;;;;2.58;1.25;;;17.80;88.40;;;;;;6190993;23;20012;-90
2022/04/15 10:54:39;;;;;;;2.90;1.40;;;17.80;86.80;;;;;;6192990;23;20009;-90
2022/04/15 10:57:17;;;;;;;4.85;1.40;;;18.00;85.20;;;;;;6214857;23;20403;-90
2022/04/15 11:02:42;;;;;;;2.22;1.08;;;18.60;84.40;;;;;;6217919;23;20411;-91
2022/04/15 11:05:11;;;;;;;3.47;1.40;;;18.80;81.80;;;;;;6191625;23;20009;-92
2022/04/15 11:07:57;;;;;;;6.95;1.75;;;18.90;81.40;;;;;;6201269;23;20016;-93
2022/04/15 11:11:02;;;;;;;4.15;1.70;;;18.70;79.50;;;;;;6209019;23;20145;-90
2022/04/15 11:13:39;;;;;;;6.35;1.30;;;18.60;79.50;;;;;;6207407;23;20005;-89
2022/04/15 11:16:27;;;;;;;4.15;1.55;;;18.70;80.10;;;;;;6167560;23;20028;-92
2022/04/15 11:18:53;;;;;;;8.98;1.73;;;18.70;79.80;;;;;;6214555;23;20437;-91
2022/04/15 11:21:19;;;;;;;2.63;1.30;;;18.60;79.20;;;;;;6187379;23;20347;-92
2022/04/15 11:24:00;;;;;;;3.78;1.40;;;18.40;78.90;;;;;;6189274;23;20047;-91
2022/04/15 11:26:27;;;;;;;3.80;1.30;;;18.30;78.90;;;;;;6215509;23;20027;-92
2022/04/15 11:28:55;;;;;;;6.95;1.60;;;18.40;79.20;;;;;;6219732;23;20008;-92
2022/04/15 11:31:32;;;;;;;2.40;1.20;;;18.30;79.20;;;;;;6219209;23;20369;-92
2022/04/15 11:34:10;;;;;;;4.30;1.45;;;18.40;79.50;;;;;;6218557;23;20449;-93
2022/04/15 11:36:43;;;;;;;6.43;1.30;;;18.50;79.80;;;;;;6220346;23;20086;-92
2022/04/15 11:39:14;;;;;;;3.63;1.30;;;18.60;79.50;;;;;;6220991;23;20427;-92
2022/04/15 11:41:46;;;;;;;3.00;1.20;;;18.80;79.40;;;;;;6220607;23;20016;-91
2022/04/15 11:44:13;;;;;;;4.97;1.40;;;18.90;78.80;;;;;;6220896;23;20008;-91
2022/04/15 11:46:49;;;;;;;3.78;1.67;;;18.90;78.10;;;;;;6221155;23;20004;-91
2022/04/15 11:49:16;;;;;;;7.35;1.63;;;19.00;77.30;;;;;;6224160;23;20018;-91
2022/04/15 11:52:01;;;;;;;3.83;1.60;;;19.20;77.50;;;;;;6225628;23;20004;-91
2022/04/15 11:54:32;;;;;;;6.10;1.95;;;19.30;77.20;;;;;;6222102;23;20039;-91
2022/04/15 11:56:59;;;;;;;3.45;1.50;;;19.40;77.00;;;;;;6220336;23;20009;-90
2022/04/15 11:59:25;;;;;;;4.93;1.30;;;19.40;76.90;;;;;;6221175;23;20453;-92
2022/04/15 12:01:53;;;;;;;4.00;1.42;;;19.30;76.70;;;;;;6220505;23;20095;-93
2022/04/15 12:04:20;;;;;;;6.00;1.50;;;19.20;76.00;;;;;;6219691;23;20015;-92
2022/04/15 12:06:46;;;;;;;2.20;1.35;;;19.10;76.30;;;;;;6220412;23;20000;-91
2022/04/15 12:09:16;;;;;;;7.40;2.00;;;19.10;76.50;;;;;;6220044;23;20008;-92
2022/04/15 12:11:43;;;;;;;;;;;19.20;76.90;;;;;;6219857;23;20078;-92
2022/04/15 12:14:09;;;;;;;6.25;2.13;;;19.50;76.60;;;;;;6219328;23;19907;-91
2022/04/15 12:16:39;;;;;;;5.05;2.00;;;19.60;75.20;;;;;;6218936;23;20012;-91
2022/04/15 12:19:06;;;;;;;4.35;2.10;;;19.50;75.10;;;;;;6219271;23;20008;-91
2022/04/15 12:21:34;;;;;;;7.18;2.22;;;19.50;75.50;;;;;;6219754;23;20051;-91
2022/04/15 12:24:10;;;;;;;4.30;1.67;;;19.60;75.40;;;;;;6219073;23;20004;-93
2022/04/15 12:26:41;;;;;;;3.92;1.98;;;19.70;75.10;;;;;;6219621;23;20016;-91
2022/04/15 12:31:51;;;;;;;4.38;2.05;;;19.80;74.70;;;;;;6246236;23;20394;-91
2022/04/15 12:34:17;;;;;;;4.20;1.90;;;19.70;74.30;;;;;;6219703;23;20004;-91
2022/04/15 12:36:45;;;;;;;7.40;1.83;;;19.60;74.30;;;;;;6219881;23;20004;-91
2022/04/15 12:39:12;;;;;;;4.47;2.58;;;19.50;74.50;;;;;;6219811;23;20008;-91
2022/04/15 12:41:39;;;;;;;3.92;2.20;;;19.60;75.10;;;;;;6219867;23;20008;-92
2022/04/15 12:44:16;;;;;;;4.63;2.30;;;19.60;75.00;;;;;;6218804;23;20004;-91
2022/04/15 12:46:47;;;;;;;5.47;2.47;;;19.60;74.80;;;;;;6218656;23;20015;-91
2022/04/15 12:49:29;;;;;;;4.53;2.65;;;19.70;75.10;;;;;;6219353;23;20008;-91
2022/04/15 12:52:09;;;;;;;6.45;2.47;;;20.00;75.30;;;;;;6220020;23;20007;-91
2022/04/15 12:54:54;;;;;;;4.70;2.28;;;20.10;74.50;;;;;;6219827;23;20004;-93
2022/04/15 12:57:19;;;;;;;4.63;2.88;;;20.20;74.20;;;;;;6220109;23;20008;-92
2022/04/15 12:59:45;;;;;;;6.80;2.90;;;20.10;73.50;;;;;;6219654;23;20012;-92
2022/04/15 13:02:11;;;;;;;7.53;2.92;;;20.00;73.60;;;;;;6220500;23;20005;-91